CheckWX is a tool to help pilots better visualize weather data.  It is not intended as a substitute for an official pre-flight weather briefing.

07:00:40 UTC

FKKD TAF
Douala International Airport
Douala, Cameroon
TAF FKKD 210500Z 2106/2212 VRB06KT 9999 BKN013 FEW016CB BECMG 2108/2110 BKN016 FEW020CB TEMPO 2118/2206 TS BKN013 FEW016CB

Sep-21@
06:00 UTC

Sep-21 @ 06:00 UTC

Sep-21@
08:00 UTC

Sep-21 @ 08:00 UTC

TAF FKKD 210500Z 2106/2212 VRB06KT 9999 BKN013 FEW016CB
Wind
  • Variable at 6 KTS
Cloud Levels
  • Broken at 1,300' AGL
  • Few at 1,600' AGL

Sep-21@
08:00 UTC

Sep-21 @ 08:00 UTC

Sep-22@
12:00 UTC

Sep-22 @ 12:00 UTC

BECMG 2108/2110 BKN016 FEW020CB

Becoming

Becoming Conditions expected by Sat, Sep 21, 2019 @ 10:00 UTC

Wind
  • Variable at 6 KTS
Cloud Levels
  • Broken at 1,600' AGL
  • Few at 2,000' AGL

Sep-21@
18:00 UTC

Sep-21 @ 18:00 UTC

Sep-22@
06:00 UTC

Sep-22 @ 06:00 UTC

TEMPO 2118/2206 TS BKN013 FEW016CB

Temporary

Temporary Changes expected for less than half the time period

Conditions
Thunderstorm
Cloud Levels
  • Broken at 1,300' AGL
  • Few at 1,600' AGL